Time;durP1;ratioP1;P1;durP2;ratioP2;P2;SDS_P1;SDS_P2;PMS_P1;PMS_P2;Temp;Humidity;BMP_temperature;BMP_pressure;BME280_temperature;BME280_humidity;BME280_pressure;Samples;Min_cycle;Max_cycle;Signal;HPM_P1;HPM_P2
2022/10/28 00:01:10;;;;;;;12.85;6.65;;;15.10;99.90;;;;;;5051584;28;20063;-71
2022/10/28 00:03:38;;;;;;;20.02;6.45;;;15.10;99.90;;;;;;5050287;28;20064;-71
2022/10/28 00:06:05;;;;;;;13.80;6.90;;;15.00;99.90;;;;;;5051421;28;20436;-71
2022/10/28 00:08:31;;;;;;;13.30;6.10;;;15.00;99.90;;;;;;5050280;28;20072;-71
2022/10/28 00:11:09;;;;;;;14.63;6.40;;;14.90;99.90;;;;;;5051479;28;20590;-70
2022/10/28 00:13:36;;;;;;;12.82;6.25;;;14.90;99.90;;;;;;5051620;28;20032;-71
2022/10/28 00:16:06;;;;;;;11.57;5.82;;;14.90;99.90;;;;;;5049729;28;20040;-70
2022/10/28 00:18:32;;;;;;;12.38;6.50;;;14.90;99.90;;;;;;5050282;28;20511;-71
2022/10/28 00:21:07;;;;;;;13.98;7.35;;;14.90;99.90;;;;;;5049976;28;20077;-70
2022/10/28 00:23:33;;;;;;;18.17;6.70;;;14.90;99.90;;;;;;5049782;28;20063;-71
2022/10/28 00:26:07;;;;;;;12.15;5.85;;;14.80;99.90;;;;;;5049542;28;20049;-71
2022/10/28 00:28:33;;;;;;;12.75;6.53;;;14.80;99.90;;;;;;5051297;28;20438;-71
2022/10/28 00:31:04;;;;;;;17.48;7.00;;;14.80;99.90;;;;;;5050038;28;20131;-71
2022/10/28 00:33:30;;;;;;;13.40;7.45;;;14.80;99.90;;;;;;5051155;28;20048;-71
2022/10/28 00:35:55;;;;;;;15.70;5.97;;;14.80;99.90;;;;;;5050933;28;20036;-71
2022/10/28 00:38:21;;;;;;;15.30;6.38;;;14.70;99.90;;;;;;5051190;28;20075;-71
2022/10/28 00:40:46;;;;;;;17.58;6.45;;;14.80;99.90;;;;;;5051249;28;20128;-71
2022/10/28 00:43:12;;;;;;;13.63;6.53;;;14.70;99.90;;;;;;5049722;28;20116;-71
2022/10/28 00:45:38;;;;;;;12.98;7.18;;;14.70;99.90;;;;;;5049096;28;20041;-71
2022/10/28 00:48:04;;;;;;;15.70;7.03;;;14.70;99.90;;;;;;5049456;28;20553;-71
2022/10/28 00:50:44;;;;;;;14.98;7.05;;;14.70;99.90;;;;;;5050907;28;20041;-71
2022/10/28 00:53:16;;;;;;;12.65;6.75;;;14.70;99.90;;;;;;5051082;28;20051;-71
2022/10/28 00:55:43;;;;;;;15.13;7.40;;;14.80;99.90;;;;;;5049360;28;20500;-71
2022/10/28 00:58:10;;;;;;;17.08;7.65;;;14.80;99.90;;;;;;5050567;28;20041;-71
2022/10/28 01:00:35;;;;;;;17.20;8.10;;;14.80;99.90;;;;;;5050993;28;20059;-71
2022/10/28 01:03:01;;;;;;;19.63;7.70;;;14.80;99.90;;;;;;5049281;28;20048;-71
2022/10/28 01:05:30;;;;;;;17.33;8.95;;;14.80;99.90;;;;;;5048990;28;20117;-71
2022/10/28 01:07:59;;;;;;;19.08;8.23;;;14.80;99.90;;;;;;5049159;28;20049;-70
2022/10/28 01:11:02;;;;;;;17.13;8.15;;;14.80;99.90;;;;;;5050795;28;20051;-71
2022/10/28 01:14:04;;;;;;;13.88;6.53;;;14.80;99.90;;;;;;5050575;28;20514;-71
2022/10/28 01:16:48;;;;;;;18.48;8.13;;;14.80;99.90;;;;;;5050796;28;20073;-71
2022/10/28 01:20:19;;;;;;;14.73;7.65;;;14.80;99.90;;;;;;5049433;28;20053;-71
2022/10/28 01:23:18;;;;;;;19.15;8.07;;;14.90;99.90;;;;;;5047905;28;20045;-71
2022/10/28 01:26:06;;;;;;;14.30;6.85;;;14.90;99.90;;;;;;5048742;28;20045;-70
2022/10/28 01:28:48;;;;;;;15.52;7.40;;;14.80;99.90;;;;;;5049372;28;20041;-71
2022/10/28 01:31:19;;;;;;;;;;;14.90;99.90;;;;;;5050799;28;20485;-71
2022/10/28 01:34:21;;;;;;;21.35;8.23;;;14.80;99.90;;;;;;5050669;28;19921;-71
2022/10/28 01:37:08;;;;;;;13.95;6.82;;;14.80;99.90;;;;;;5050175;28;20501;-71
2022/10/28 01:40:13;;;;;;;13.02;7.05;;;14.80;99.90;;;;;;5050468;28;20060;-71
2022/10/28 01:42:52;;;;;;;13.52;6.40;;;14.70;99.90;;;;;;5048522;28;20464;-71
2022/10/28 01:45:33;;;;;;;15.52;7.38;;;14.70;99.90;;;;;;5050135;28;20049;-71
2022/10/28 01:48:07;;;;;;;17.48;7.25;;;14.70;99.90;;;;;;5050233;28;20099;-71
2022/10/28 01:50:51;;;;;;;18.15;7.55;;;14.60;99.90;;;;;;5048950;28;20051;-71
2022/10/28 01:53:23;;;;;;;12.60;6.90;;;14.50;99.90;;;;;;5048858;28;20049;-71
2022/10/28 01:55:52;;;;;;;15.60;6.97;;;14.60;99.90;;;;;;5050251;28;20053;-71
2022/10/28 01:58:22;;;;;;;12.40;6.47;;;14.50;99.90;;;;;;5049915;28;20501;-71
2022/10/28 02:00:49;;;;;;;16.85;6.95;;;14.50;99.90;;;;;;5050548;28;20123;-71
2022/10/28 02:03:15;;;;;;;15.68;6.28;;;14.40;99.90;;;;;;5048763;28;20041;-71
2022/10/28 02:05:48;;;;;;;16.80;6.80;;;14.50;99.90;;;;;;5050067;28;20052;-71
2022/10/28 02:08:17;;;;;;;17.45;6.70;;;14.50;99.90;;;;;;5048718;28;20040;-71
2022/10/28 02:10:48;;;;;;;17.33;6.20;;;14.40;99.90;;;;;;5050242;28;20048;-71
2022/10/28 02:13:17;;;;;;;13.70;6.43;;;14.40;99.90;;;;;;5050195;28;20041;-71
2022/10/28 02:15:53;;;;;;;14.13;6.45;;;14.40;99.90;;;;;;5051873;28;20048;-71
2022/10/28 02:18:25;;;;;;;14.48;6.22;;;14.40;99.90;;;;;;5053837;28;20041;-71
2022/10/28 02:20:57;;;;;;;12.88;7.07;;;14.30;99.90;;;;;;5053631;28;20049;-71
2022/10/28 02:23:26;;;;;;;12.80;7.35;;;14.40;99.90;;;;;;5053794;28;20033;-71
2022/10/28 02:26:04;;;;;;;16.30;7.07;;;14.30;99.90;;;;;;5053148;28;20040;-70
2022/10/28 02:28:47;;;;;;;16.08;6.93;;;14.30;99.90;;;;;;5051952;28;20036;-71
2022/10/28 02:31:28;;;;;;;14.57;7.18;;;14.20;99.90;;;;;;5053549;28;20398;-71
2022/10/28 02:33:59;;;;;;;13.43;7.18;;;14.20;99.90;;;;;;5051720;28;20041;-71
2022/10/28 02:36:28;;;;;;;17.02;7.97;;;14.20;99.90;;;;;;5035662;28;20053;-71
2022/10/28 02:38:56;;;;;;;17.13;6.78;;;14.20;99.90;;;;;;5051753;28;20045;-71
2022/10/28 02:41:37;;;;;;;15.73;7.70;;;14.10;99.90;;;;;;5051849;28;20040;-71
2022/10/28 02:44:08;;;;;;;14.50;7.25;;;14.10;99.90;;;;;;5051672;28;20545;-71
2022/10/28 02:46:37;;;;;;;18.97;6.93;;;14.10;99.90;;;;;;5051833;28;20071;-71
2022/10/28 02:49:07;;;;;;;20.55;7.57;;;14.00;99.90;;;;;;5051585;28;20280;-71
2022/10/28 02:51:37;;;;;;;12.50;7.32;;;14.00;99.90;;;;;;5053165;28;20045;-71
2022/10/28 02:54:11;;;;;;;14.43;7.22;;;14.10;99.90;;;;;;5051236;28;20135;-71
2022/10/28 02:56:42;;;;;;;15.98;7.20;;;14.10;99.90;;;;;;5052986;28;20094;-71
2022/10/28 02:59:10;;;;;;;17.67;8.00;;;14.00;99.90;;;;;;5052633;28;20489;-71
2022/10/28 03:01:36;;;;;;;13.55;7.55;;;14.00;99.90;;;;;;5051497;28;20045;-71
2022/10/28 03:04:02;;;;;;;12.77;7.53;;;14.00;99.90;;;;;;5051107;28;20045;-71
2022/10/28 03:06:27;;;;;;;18.23;8.18;;;14.00;99.90;;;;;;5052890;28;20086;-71
2022/10/28 03:08:53;;;;;;;12.85;7.28;;;13.90;99.90;;;;;;5052743;28;20037;-71
2022/10/28 03:11:19;;;;;;;14.52;7.28;;;13.90;99.90;;;;;;5052811;28;20101;-71
2022/10/28 03:13:44;;;;;;;12.60;7.15;;;13.90;99.90;;;;;;5052250;28;20111;-71
2022/10/28 03:16:10;;;;;;;14.20;7.45;;;13.80;99.90;;;;;;5052441;28;20056;-71
2022/10/28 03:18:35;;;;;;;14.60;6.70;;;13.70;99.90;;;;;;5052335;28;20033;-71
2022/10/28 03:21:01;;;;;;;14.50;7.32;;;13.70;99.90;;;;;;5052670;28;20036;-71
2022/10/28 03:23:26;;;;;;;12.77;6.95;;;13.70;99.90;;;;;;5052409;28;20037;-71
2022/10/28 03:25:52;;;;;;;14.00;6.20;;;13.60;99.90;;;;;;5051809;28;20044;-72
2022/10/28 03:28:17;;;;;;;13.02;6.78;;;13.60;99.90;;;;;;5052266;28;20115;-71
2022/10/28 03:30:43;;;;;;;14.05;7.30;;;13.60;99.90;;;;;;5052136;28;20125;-71
2022/10/28 03:33:08;;;;;;;11.80;6.80;;;13.60;99.90;;;;;;5052344;28;20041;-71
2022/10/28 03:35:34;;;;;;;17.35;7.03;;;13.50;99.90;;;;;;5050707;28;20067;-72
2022/10/28 03:37:59;;;;;;;13.50;7.63;;;13.50;99.90;;;;;;5052944;28;20108;-71
2022/10/28 03:40:25;;;;;;;11.90;6.55;;;13.50;99.90;;;;;;5053066;28;20049;-71
2022/10/28 03:42:50;;;;;;;14.48;6.90;;;13.50;99.90;;;;;;5053360;28;20036;-71
2022/10/28 03:45:16;;;;;;;16.27;7.55;;;13.50;99.90;;;;;;5051746;28;20044;-71
2022/10/28 03:47:41;;;;;;;15.50;7.57;;;13.50;99.90;;;;;;5050564;28;20040;-71
2022/10/28 03:50:08;;;;;;;17.60;7.85;;;13.60;99.90;;;;;;5052079;28;20093;-71
2022/10/28 03:52:33;;;;;;;16.98;7.78;;;13.60;99.90;;;;;;5050446;28;20041;-71
2022/10/28 03:54:59;;;;;;;17.92;8.65;;;13.60;99.90;;;;;;5050310;28;20045;-71
2022/10/28 03:57:24;;;;;;;18.38;8.50;;;13.70;99.90;;;;;;5051694;28;20045;-71
2022/10/28 03:59:50;;;;;;;21.83;9.23;;;13.70;99.90;;;;;;5051583;28;20036;-71
2022/10/28 04:02:15;;;;;;;15.88;8.32;;;13.70;99.90;;;;;;5051589;28;20183;-71
2022/10/28 04:04:41;;;;;;;18.60;8.90;;;13.70;99.90;;;;;;5049866;28;20131;-71
2022/10/28 04:07:06;;;;;;;15.40;8.05;;;13.70;99.90;;;;;;5051712;28;20088;-71
2022/10/28 04:09:32;;;;;;;19.17;7.82;;;13.60;99.90;;;;;;5050151;28;20068;-71
2022/10/28 04:11:57;;;;;;;20.02;9.32;;;13.60;99.90;;;;;;5051632;28;20468;-71
2022/10/28 04:14:23;;;;;;;13.85;8.00;;;13.60;99.90;;;;;;5051052;28;20045;-71
2022/10/28 04:16:48;;;;;;;18.52;7.60;;;13.50;99.90;;;;;;5050113;28;20477;-71
2022/10/28 04:19:14;;;;;;;12.50;7.90;;;13.50;99.90;;;;;;5051158;28;20044;-71
2022/10/28 04:21:39;;;;;;;13.63;7.30;;;13.50;99.90;;;;;;5051305;28;20048;-71
2022/10/28 04:24:05;;;;;;;12.38;7.38;;;13.40;99.90;;;;;;5051017;28;20052;-71
2022/10/28 04:26:30;;;;;;;17.25;7.78;;;13.50;99.90;;;;;;5051436;28;20037;-71
2022/10/28 04:28:56;;;;;;;18.70;7.63;;;13.40;99.90;;;;;;5051011;28;20508;-71
2022/10/28 04:31:22;;;;;;;17.83;7.85;;;13.40;99.90;;;;;;5051316;28;20090;-71
2022/10/28 04:33:47;;;;;;;17.02;7.43;;;13.40;99.90;;;;;;5051023;28;20065;-71
2022/10/28 04:36:13;;;;;;;15.82;8.13;;;13.40;99.90;;;;;;5049473;28;20048;-71
2022/10/28 04:38:38;;;;;;;12.80;7.13;;;13.40;99.90;;;;;;5050773;28;20566;-71
2022/10/28 04:41:04;;;;;;;12.20;7.03;;;13.40;99.90;;;;;;5049736;28;20049;-71
2022/10/28 04:43:29;;;;;;;14.95;8.60;;;13.40;99.90;;;;;;5050898;28;20045;-71
2022/10/28 04:45:55;;;;;;;12.80;7.38;;;13.40;99.90;;;;;;5049617;28;20401;-71
2022/10/28 04:48:21;;;;;;;19.17;7.97;;;13.40;99.90;;;;;;5049415;28;20040;-71
2022/10/28 04:50:46;;;;;;;16.55;7.15;;;13.40;99.90;;;;;;5049638;28;20489;-71
2022/10/28 04:53:12;;;;;;;13.68;7.63;;;13.40;99.90;;;;;;5049594;28;20120;-71
2022/10/28 04:55:38;;;;;;;17.50;7.47;;;13.40;99.90;;;;;;5050428;28;20048;-71
2022/10/28 04:58:03;;;;;;;20.75;6.93;;;13.50;99.90;;;;;;5050635;28;20159;-71
2022/10/28 05:00:29;;;;;;;18.10;6.93;;;13.50;99.90;;;;;;5050753;28;20076;-71
2022/10/28 05:02:56;;;;;;;19.92;7.88;;;13.60;99.90;;;;;;5051224;28;20494;-71
2022/10/28 05:05:21;;;;;;;19.63;7.63;;;13.60;99.90;;;;;;5050392;28;20041;-71
2022/10/28 05:07:47;;;;;;;16.90;8.30;;;13.70;99.90;;;;;;5049286;28;20421;-71
2022/10/28 05:10:14;;;;;;;17.20;6.75;;;13.70;99.90;;;;;;5050625;28;20465;-71
2022/10/28 05:12:46;;;;;;;15.70;7.70;;;13.80;99.90;;;;;;5050563;28;20098;-71
2022/10/28 05:15:13;;;;;;;24.77;8.30;;;13.80;99.90;;;;;;5049191;28;20045;-71
2022/10/28 05:17:46;;;;;;;15.25;7.78;;;13.90;99.90;;;;;;5050673;28;20138;-71
2022/10/28 05:20:13;;;;;;;14.25;7.38;;;14.00;99.90;;;;;;5049078;28;20120;-71
2022/10/28 05:22:45;;;;;;;18.15;7.88;;;14.00;99.90;;;;;;5049439;28;20145;-71
2022/10/28 05:25:11;;;;;;;20.17;7.75;;;14.10;99.90;;;;;;5049057;28;20409;-71
2022/10/28 05:27:36;;;;;;;16.23;7.10;;;14.10;99.90;;;;;;5049117;28;20064;-71
2022/10/28 05:30:02;;;;;;;21.42;7.60;;;14.10;99.90;;;;;;5050686;28;20086;-71
2022/10/28 05:32:28;;;;;;;17.08;7.05;;;14.10;99.90;;;;;;5050579;28;20111;-71
2022/10/28 05:34:53;;;;;;;14.43;8.10;;;14.20;99.90;;;;;;5048811;28;20128;-71
2022/10/28 05:37:19;;;;;;;13.75;7.03;;;14.10;99.90;;;;;;5049092;28;20081;-71
2022/10/28 05:39:44;;;;;;;17.98;6.78;;;14.20;99.90;;;;;;5050416;28;20041;-71
2022/10/28 05:42:10;;;;;;;18.33;6.88;;;14.20;99.90;;;;;;5050268;28;20047;-71
2022/10/28 05:44:36;;;;;;;17.30;7.00;;;14.30;99.90;;;;;;5050141;28;20041;-72
2022/10/28 05:47:01;;;;;;;14.63;7.28;;;14.20;99.90;;;;;;5050349;28;20052;-71
2022/10/28 05:49:27;;;;;;;15.07;7.93;;;14.30;99.90;;;;;;5052037;28;20033;-71
2022/10/28 05:51:52;;;;;;;13.20;6.45;;;14.20;99.90;;;;;;5054181;28;20222;-71
2022/10/28 05:54:18;;;;;;;18.33;7.32;;;14.20;99.90;;;;;;5052718;28;20076;-71
2022/10/28 05:56:43;;;;;;;19.65;6.90;;;14.20;99.90;;;;;;5052866;28;20128;-72
2022/10/28 05:59:09;;;;;;;15.88;6.55;;;14.20;99.90;;;;;;5052558;28;20052;-71
2022/10/28 06:01:34;;;;;;;15.88;7.32;;;14.10;99.90;;;;;;5054205;28;20045;-71
2022/10/28 06:04:00;;;;;;;13.00;6.35;;;14.10;99.90;;;;;;5053615;28;20041;-71
2022/10/28 06:06:27;;;;;;;11.85;6.15;;;14.10;99.90;;;;;;5054158;28;20119;-71
2022/10/28 06:08:52;;;;;;;14.02;6.32;;;14.10;99.90;;;;;;5053787;28;20168;-71
2022/10/28 06:11:18;;;;;;;12.65;6.57;;;14.10;99.90;;;;;;5052326;28;20623;-71
2022/10/28 06:13:44;;;;;;;12.57;6.50;;;14.10;99.90;;;;;;5053801;28;20120;-71
2022/10/28 06:16:09;;;;;;;17.85;7.03;;;14.10;99.90;;;;;;5051730;28;20049;-71
2022/10/28 06:18:35;;;;;;;15.55;7.25;;;14.10;99.90;;;;;;5049358;28;20049;-71
2022/10/28 06:21:00;;;;;;;17.42;6.20;;;14.20;99.90;;;;;;5051957;28;20044;-71
2022/10/28 06:23:27;;;;;;;13.60;6.60;;;14.20;99.90;;;;;;5052371;28;20045;-71
2022/10/28 06:25:58;;;;;;;12.75;6.35;;;14.20;99.90;;;;;;5050812;28;20067;-71
2022/10/28 06:28:24;;;;;;;13.63;6.93;;;14.10;99.90;;;;;;5052487;28;20037;-71
2022/10/28 06:30:49;;;;;;;20.10;6.88;;;14.20;99.90;;;;;;5052148;28;20381;-71
2022/10/28 06:33:15;;;;;;;11.07;6.43;;;14.20;99.90;;;;;;5052044;28;20500;-71
2022/10/28 06:35:40;;;;;;;15.00;7.50;;;14.20;99.90;;;;;;5051701;28;20045;-71
2022/10/28 06:38:06;;;;;;;13.95;6.50;;;14.20;99.90;;;;;;5051987;28;20045;-71
2022/10/28 06:40:31;;;;;;;21.77;7.05;;;14.10;99.90;;;;;;5051868;28;20048;-71
2022/10/28 06:43:03;;;;;;;12.82;6.72;;;14.20;99.90;;;;;;5051853;28;20045;-71
2022/10/28 06:45:31;;;;;;;16.20;7.30;;;14.20;99.90;;;;;;5052700;28;20497;-71
2022/10/28 06:47:58;;;;;;;16.23;6.35;;;14.20;99.90;;;;;;5051737;28;20037;-71
2022/10/28 06:50:24;;;;;;;14.68;6.32;;;14.20;99.90;;;;;;5051717;28;20037;-72
2022/10/28 06:52:50;;;;;;;14.75;6.85;;;14.30;99.90;;;;;;5051696;28;20043;-72
2022/10/28 06:55:16;;;;;;;17.42;6.95;;;14.20;99.90;;;;;;5051422;28;20094;-71
2022/10/28 06:57:41;;;;;;;21.58;6.40;;;14.20;99.90;;;;;;5053128;28;20094;-71
2022/10/28 07:00:07;;;;;;;13.50;6.90;;;14.30;99.90;;;;;;5052208;28;20467;-71
2022/10/28 07:02:33;;;;;;;16.17;7.10;;;14.30;99.90;;;;;;5051637;28;20044;-71
2022/10/28 07:04:58;;;;;;;15.55;7.10;;;14.30;99.90;;;;;;5051482;28;20041;-71
2022/10/28 07:07:24;;;;;;;18.60;7.38;;;14.40;99.90;;;;;;5052725;28;20378;-71
2022/10/28 07:09:49;;;;;;;16.40;7.63;;;14.30;99.90;;;;;;5052715;28;20041;-70
2022/10/28 07:12:15;;;;;;;16.35;6.90;;;14.40;99.90;;;;;;5051733;28;20036;-72
2022/10/28 07:14:41;;;;;;;17.08;7.70;;;14.40;99.90;;;;;;5051151;28;20071;-71
2022/10/28 07:17:06;;;;;;;14.27;6.53;;;14.40;99.90;;;;;;5051357;28;20048;-71
2022/10/28 07:19:32;;;;;;;14.60;6.60;;;14.50;99.90;;;;;;5051502;28;20398;-71
2022/10/28 07:21:57;;;;;;;20.10;7.00;;;14.50;99.90;;;;;;5051276;28;20048;-71
2022/10/28 07:24:23;;;;;;;15.68;7.25;;;14.60;99.90;;;;;;5050801;28;20481;-71
2022/10/28 07:26:48;;;;;;;18.15;6.72;;;14.70;99.90;;;;;;5034466;28;20456;-70
2022/10/28 07:29:15;;;;;;;18.73;6.68;;;14.60;99.90;;;;;;5052439;28;20041;-70
2022/10/28 07:31:41;;;;;;;18.08;6.82;;;14.70;99.90;;;;;;5050931;28;20041;-71
2022/10/28 07:34:06;;;;;;;15.70;6.57;;;14.70;99.90;;;;;;5050964;28;20041;-71
2022/10/28 07:36:32;;;;;;;14.93;6.90;;;14.80;99.90;;;;;;5050816;28;20044;-71
2022/10/28 07:38:57;;;;;;;14.82;6.13;;;14.80;99.90;;;;;;5051144;28;20493;-71
2022/10/28 07:41:23;;;;;;;15.35;6.72;;;14.80;99.90;;;;;;5052204;28;20109;-71
2022/10/28 07:43:49;;;;;;;18.95;5.95;;;14.90;99.90;;;;;;5050558;28;20044;-71
2022/10/28 07:46:16;;;;;;;14.15;6.88;;;14.90;99.90;;;;;;5052085;28;20110;-71
2022/10/28 07:48:42;;;;;;;17.40;6.05;;;14.90;99.90;;;;;;5050678;28;20046;-71
2022/10/28 07:51:10;;;;;;;15.73;6.18;;;14.90;99.90;;;;;;5051799;28;20037;-71
2022/10/28 07:53:36;;;;;;;13.30;5.85;;;14.90;99.90;;;;;;5050575;28;20501;-71
2022/10/28 07:56:05;;;;;;;13.98;6.82;;;15.00;99.90;;;;;;5051879;28;20033;-71
2022/10/28 07:58:31;;;;;;;16.02;5.90;;;15.10;99.90;;;;;;5051606;28;20569;-71
2022/10/28 08:01:04;;;;;;;11.20;6.30;;;15.10;99.90;;;;;;5052047;28;20116;-71
2022/10/28 08:03:30;;;;;;;11.73;5.75;;;15.10;99.90;;;;;;5051861;28;20060;-71
2022/10/28 08:06:11;;;;;;;15.10;6.40;;;15.20;99.90;;;;;;5049920;28;20045;-70
2022/10/28 08:08:38;;;;;;;13.83;6.33;;;15.30;99.90;;;;;;5050528;28;20048;-71
2022/10/28 08:11:12;;;;;;;18.88;6.43;;;15.30;99.90;;;;;;5051083;28;20540;-70
2022/10/28 08:13:37;;;;;;;17.05;7.28;;;15.30;99.90;;;;;;5050244;28;20505;-71
2022/10/28 08:16:03;;;;;;;16.52;6.05;;;15.30;99.90;;;;;;5049811;28;20057;-70
2022/10/28 08:18:28;;;;;;;14.23;6.45;;;15.40;99.90;;;;;;5050042;28;20520;-71
2022/10/28 08:20:57;;;;;;;14.70;6.32;;;15.40;99.90;;;;;;5050263;28;20053;-71
2022/10/28 08:23:22;;;;;;;17.80;6.63;;;15.30;99.90;;;;;;5051584;28;20044;-71
2022/10/28 08:25:49;;;;;;;16.02;6.28;;;15.40;99.90;;;;;;5049692;28;20045;-70
2022/10/28 08:28:16;;;;;;;13.18;6.32;;;15.40;99.90;;;;;;5051234;28;20084;-71
2022/10/28 08:30:41;;;;;;;13.95;5.40;;;15.50;99.90;;;;;;5051088;28;20037;-71
2022/10/28 08:33:07;;;;;;;12.73;5.60;;;15.60;99.90;;;;;;5049912;28;20059;-71
2022/10/28 08:35:34;;;;;;;21.13;5.97;;;15.50;99.90;;;;;;5051138;28;20041;-71
2022/10/28 08:37:59;;;;;;;13.43;5.72;;;15.50;99.90;;;;;;5049809;28;20505;-71
2022/10/28 08:40:38;;;;;;;20.88;5.85;;;15.60;99.90;;;;;;5051117;28;20066;-71
2022/10/28 08:43:17;;;;;;;14.40;5.70;;;15.70;99.90;;;;;;5051400;28;20059;-71
2022/10/28 08:46:13;;;;;;;13.13;6.18;;;15.70;99.90;;;;;;5050733;28;20048;-71
2022/10/28 08:48:40;;;;;;;15.52;6.25;;;15.80;99.90;;;;;;5051167;28;20040;-71
2022/10/28 08:51:13;;;;;;;13.30;5.72;;;15.80;99.90;;;;;;5049691;28;20045;-71
2022/10/28 08:53:46;;;;;;;16.10;6.72;;;15.80;99.90;;;;;;5051188;28;20155;-71
2022/10/28 08:56:18;;;;;;;14.27;5.80;;;15.90;99.90;;;;;;5051052;28;20040;-71
2022/10/28 08:58:45;;;;;;;17.58;5.32;;;15.90;99.90;;;;;;5050802;28;20040;-71
2022/10/28 09:01:31;;;;;;;12.45;4.68;;;16.10;99.90;;;;;;5050823;28;20467;-71
2022/10/28 09:04:01;;;;;;;15.38;5.25;;;16.20;99.90;;;;;;5050758;28;20045;-72
2022/10/28 09:06:26;;;;;;;18.27;5.78;;;16.20;99.90;;;;;;5049305;28;20048;-71
2022/10/28 09:08:53;;;;;;;18.50;5.72;;;16.20;99.90;;;;;;5049521;28;20029;-71
2022/10/28 09:11:18;;;;;;;12.10;5.35;;;16.40;99.90;;;;;;5051127;28;20147;-71
2022/10/28 09:13:55;;;;;;;13.32;5.53;;;16.40;99.90;;;;;;5049640;28;20401;-71
2022/10/28 09:16:30;;;;;;;10.95;6.05;;;16.50;99.90;;;;;;5050595;28;20076;-71
2022/10/28 09:18:57;;;;;;;12.10;5.18;;;16.60;99.90;;;;;;5049602;28;20076;-71
2022/10/28 09:21:43;;;;;;;12.63;5.20;;;16.70;99.90;;;;;;5050861;28;20049;-72
2022/10/28 09:24:18;;;;;;;12.75;5.35;;;16.70;99.90;;;;;;5051977;28;20064;-71
2022/10/28 09:27:20;;;;;;;9.77;5.03;;;16.70;99.90;;;;;;5054753;28;20033;-71
2022/10/28 09:30:09;;;;;;;11.75;5.07;;;16.70;99.90;;;;;;5054989;28;20123;-71
2022/10/28 09:33:29;;;;;;;16.05;5.25;;;16.70;99.90;;;;;;5050318;28;20045;-71
2022/10/28 09:35:55;;;;;;;18.00;6.93;;;16.80;99.90;;;;;;5035159;28;20086;-71
2022/10/28 09:38:29;;;;;;;14.30;5.00;;;16.80;99.90;;;;;;5054157;28;20057;-71
2022/10/28 09:41:27;;;;;;;13.70;5.07;;;16.80;99.90;;;;;;5053130;28;20044;-71
2022/10/28 09:43:58;;;;;;;15.32;5.55;;;16.80;99.90;;;;;;5051458;28;20045;-71
2022/10/28 09:46:27;;;;;;;14.75;6.78;;;16.80;99.90;;;;;;5051690;28;20079;-71
2022/10/28 09:48:57;;;;;;;12.98;5.90;;;16.90;99.90;;;;;;5051690;28;20563;-71
2022/10/28 09:51:27;;;;;;;14.95;5.25;;;16.90;99.90;;;;;;5034861;28;20081;-71
2022/10/28 09:53:57;;;;;;;13.27;5.22;;;16.90;99.90;;;;;;5051341;28;20048;-71
2022/10/28 09:56:24;;;;;;;12.98;4.95;;;16.90;99.90;;;;;;5051494;28;20517;-71
2022/10/28 09:58:51;;;;;;;11.43;5.65;;;16.90;99.90;;;;;;5051363;28;20412;-71
2022/10/28 10:01:18;;;;;;;15.13;5.05;;;17.00;99.90;;;;;;5034975;28;20436;-71
2022/10/28 10:03:47;;;;;;;16.02;5.25;;;17.10;99.90;;;;;;5034707;28;20091;-71
2022/10/28 10:06:27;;;;;;;12.05;4.82;;;17.10;99.90;;;;;;5034507;28;20076;-71
2022/10/28 10:08:56;;;;;;;14.57;5.32;;;17.10;99.90;;;;;;5051415;28;20044;-71
2022/10/28 10:11:45;;;;;;;10.95;5.00;;;17.10;99.90;;;;;;5051295;28;20037;-71
2022/10/28 10:14:28;;;;;;;14.27;5.15;;;17.10;99.90;;;;;;5051202;28;20053;-71
2022/10/28 10:17:04;;;;;;;12.45;5.07;;;17.20;99.90;;;;;;5034602;28;20528;-71
2022/10/28 10:19:57;;;;;;;17.50;5.05;;;17.20;99.90;;;;;;5051857;28;20053;-71
2022/10/28 10:22:29;;;;;;;;;;;17.20;99.90;;;;;;5052860;28;20045;-71
2022/10/28 10:24:54;;;;;;;12.52;4.45;;;17.30;99.90;;;;;;5053618;28;19936;-71
2022/10/28 10:27:20;;;;;;;12.13;4.60;;;17.30;99.90;;;;;;5052067;28;20040;-71
2022/10/28 10:29:49;;;;;;;13.02;5.00;;;17.30;99.90;;;;;;5052234;28;20049;-71
2022/10/28 10:32:17;;;;;;;12.10;4.97;;;17.30;99.90;;;;;;5053422;28;20406;-71
2022/10/28 10:34:50;;;;;;;14.07;5.57;;;17.40;99.90;;;;;;5052285;28;20041;-71
2022/10/28 10:37:20;;;;;;;17.88;5.38;;;17.50;99.90;;;;;;5052188;28;20053;-71
2022/10/28 10:40:18;;;;;;;13.93;4.97;;;17.60;99.90;;;;;;5051984;28;20090;-71
2022/10/28 10:42:44;;;;;;;12.23;4.93;;;17.60;99.90;;;;;;5052817;28;20417;-71
2022/10/28 10:45:24;;;;;;;11.45;4.20;;;17.60;99.90;;;;;;5051710;28;20076;-71
2022/10/28 10:48:14;;;;;;;8.85;4.88;;;17.70;99.90;;;;;;5052963;28;20485;-71
2022/10/28 10:50:48;;;;;;;12.50;4.63;;;17.80;99.90;;;;;;5053476;28;20043;-71
2022/10/28 10:53:24;;;;;;;15.77;4.78;;;17.80;99.90;;;;;;5053181;28;20056;-71
2022/10/28 10:55:53;;;;;;;16.20;5.50;;;17.90;99.90;;;;;;5053128;28;20397;-71
2022/10/28 10:58:22;;;;;;;19.73;5.32;;;17.90;99.90;;;;;;5052615;28;20132;-71
2022/10/28 11:00:50;;;;;;;10.98;4.75;;;17.90;99.90;;;;;;5053138;28;20087;-71
2022/10/28 11:03:18;;;;;;;13.13;5.28;;;18.00;99.90;;;;;;5053046;28;20045;-71
2022/10/28 11:05:49;;;;;;;12.95;5.25;;;18.00;99.90;;;;;;5051534;28;20049;-71
2022/10/28 11:08:31;;;;;;;15.02;5.25;;;18.00;99.90;;;;;;5052796;28;20117;-71
2022/10/28 11:11:13;;;;;;;19.00;4.82;;;18.00;99.90;;;;;;5051589;28;20040;-71
2022/10/28 11:13:39;;;;;;;15.80;4.65;;;18.10;99.90;;;;;;5052603;28;20049;-71
2022/10/28 11:16:16;;;;;;;11.07;4.63;;;18.10;99.90;;;;;;5051173;28;20432;-71
2022/10/28 11:18:44;;;;;;;17.15;6.10;;;18.10;99.90;;;;;;5052537;28;20052;-71
2022/10/28 11:21:29;;;;;;;12.75;4.28;;;18.20;99.90;;;;;;5052749;28;20080;-71
2022/10/28 11:24:26;;;;;;;15.57;5.20;;;18.30;99.90;;;;;;5052410;28;20056;-70
2022/10/28 11:27:12;;;;;;;13.10;4.30;;;18.40;99.90;;;;;;5052393;28;20072;-71
2022/10/28 11:29:39;;;;;;;11.80;4.10;;;18.40;99.90;;;;;;5052483;28;20081;-71
2022/10/28 11:32:18;;;;;;;11.68;4.72;;;18.60;99.90;;;;;;5052144;28;20051;-71
2022/10/28 11:35:07;;;;;;;17.02;4.97;;;18.60;99.90;;;;;;5050719;28;20048;-71
2022/10/28 11:37:49;;;;;;;8.88;4.20;;;18.60;99.90;;;;;;5052078;28;20509;-71
2022/10/28 11:40:36;;;;;;;13.88;4.75;;;18.60;99.90;;;;;;5052173;28;20111;-71
2022/10/28 11:43:10;;;;;;;12.40;4.47;;;18.70;99.90;;;;;;5052290;28;20378;-71
2022/10/28 11:45:53;;;;;;;16.88;5.18;;;18.70;99.90;;;;;;5051999;28;20049;-71
2022/10/28 11:48:39;;;;;;;14.82;5.90;;;18.70;99.90;;;;;;5050653;28;20071;-71
2022/10/28 11:51:45;;;;;;;10.05;4.50;;;18.70;99.90;;;;;;5050653;28;20044;-71
2022/10/28 11:54:22;;;;;;;11.27;4.70;;;18.80;99.90;;;;;;5051888;28;20083;-71
2022/10/28 11:56:56;;;;;;;14.25;5.03;;;18.90;99.90;;;;;;5052125;28;20124;-71
2022/10/28 11:59:22;;;;;;;20.02;4.97;;;18.80;99.90;;;;;;5051744;28;20043;-71
2022/10/28 12:02:12;;;;;;;13.70;4.75;;;18.90;99.90;;;;;;5051711;28;20048;-71
2022/10/28 12:04:56;;;;;;;15.63;4.40;;;19.00;99.90;;;;;;5051375;28;20504;-71
2022/10/28 12:07:27;;;;;;;10.88;4.85;;;19.00;99.90;;;;;;5050238;28;20044;-71
2022/10/28 12:10:22;;;;;;;12.95;4.88;;;19.00;99.90;;;;;;5051812;28;20041;-71
2022/10/28 12:12:58;;;;;;;13.95;5.15;;;19.10;99.90;;;;;;5051520;28;20055;-71
2022/10/28 12:15:50;;;;;;;9.00;4.15;;;19.10;99.90;;;;;;5049952;28;20037;-71
2022/10/28 12:18:24;;;;;;;17.77;4.75;;;19.10;99.90;;;;;;5051605;28;20037;-71
2022/10/28 12:21:12;;;;;;;12.02;4.50;;;19.00;99.90;;;;;;5050515;28;20041;-71
2022/10/28 12:23:40;;;;;;;12.10;4.60;;;19.10;99.90;;;;;;5051171;28;20513;-71
2022/10/28 12:26:09;;;;;;;17.13;4.72;;;19.10;99.90;;;;;;5049792;28;20052;-71
2022/10/28 12:28:48;;;;;;;9.05;4.32;;;19.20;99.90;;;;;;5049753;28;20036;-71
2022/10/28 12:31:41;;;;;;;17.02;4.60;;;19.10;99.90;;;;;;5051480;28;20040;-71
2022/10/28 12:34:14;;;;;;;12.35;4.80;;;19.10;99.90;;;;;;5049830;28;20059;-71
2022/10/28 12:36:55;;;;;;;12.38;5.28;;;19.10;99.90;;;;;;5050109;28;20053;-71
2022/10/28 12:39:27;;;;;;;15.03;4.80;;;19.20;99.90;;;;;;5049768;28;20059;-71
2022/10/28 12:41:59;;;;;;;17.55;5.45;;;19.20;99.90;;;;;;5051179;28;20032;-71
2022/10/28 12:44:27;;;;;;;;;;;19.20;99.90;;;;;;5051403;28;20076;-71
2022/10/28 12:47:15;;;;;;;9.88;4.00;;;19.20;99.90;;;;;;5049659;28;19917;-71
2022/10/28 12:49:47;;;;;;;15.23;4.10;;;19.20;99.90;;;;;;5051029;28;20078;-71
2022/10/28 12:52:34;;;;;;;14.45;6.10;;;19.20;99.90;;;;;;5051031;28;20068;-71
2022/10/28 12:55:40;;;;;;;14.73;4.13;;;19.30;99.90;;;;;;5050566;28;20044;-71
2022/10/28 12:58:22;;;;;;;12.50;3.95;;;19.30;99.90;;;;;;5048442;28;20049;-71
2022/10/28 13:00:51;;;;;;;;;;;19.40;99.90;;;;;;5050221;28;20111;-71